Time;durP1;ratioP1;P1;durP2;ratioP2;P2;SDS_P1;SDS_P2;PMS_P1;PMS_P2;Temp;Humidity;BMP_temperature;BMP_pressure;BME280_temperature;BME280_humidity;BME280_pressure;Samples;Min_cycle;Max_cycle;Signal;HPM_P1;HPM_P2
2021/03/05 00:00:09;;;;;;;130.23;59.45;;;77.50;2048.00;;;;;;5106706;28;20477;-75
2021/03/05 00:02:35;;;;;;;151.52;71.53;;;77.50;2048.00;;;;;;5102707;28;20024;-76
2021/03/05 00:05:01;;;;;;;151.15;68.80;;;77.50;2048.00;;;;;;5109044;28;20031;-76
2021/03/05 00:07:27;;;;;;;146.95;67.75;;;77.40;2073.60;;;;;;5100864;28;20049;-79
2021/03/05 00:09:52;;;;;;;140.85;65.03;;;77.40;2073.60;;;;;;5097665;28;20209;-79
2021/03/05 00:12:18;;;;;;;153.90;69.97;;;77.40;2048.00;;;;;;5094887;28;20024;-79
2021/03/05 00:14:44;;;;;;;133.57;56.95;;;77.40;2073.60;;;;;;5094677;28;20472;-80
2021/03/05 00:17:10;;;;;;;110.38;50.05;;;77.40;2048.00;;;;;;5097882;28;20012;-77
2021/03/05 00:19:37;;;;;;;130.80;60.28;;;77.40;2022.40;;;;;;5097262;28;20021;-75
2021/03/05 00:22:03;;;;;;;128.98;60.22;;;77.30;2073.60;;;;;;5097368;28;20023;-76
2021/03/05 00:24:29;;;;;;;169.90;75.38;;;77.30;2073.60;;;;;;5095000;28;20031;-76
2021/03/05 00:26:55;;;;;;;159.13;73.05;;;77.30;2073.60;;;;;;5094582;28;20016;-75
2021/03/05 00:29:20;;;;;;;137.13;61.25;;;77.20;2099.20;;;;;;5098909;28;20384;-75
2021/03/05 00:31:46;;;;;;;110.82;52.15;;;77.10;2099.20;;;;;;5099223;28;20028;-76
2021/03/05 00:34:11;;;;;;;102.68;47.72;;;77.10;2073.60;;;;;;5094376;28;20115;-75
2021/03/05 00:36:37;;;;;;;101.07;48.03;;;77.10;2099.20;;;;;;5094518;28;20025;-75
2021/03/05 00:39:04;;;;;;;96.43;47.05;;;77.10;2073.60;;;;;;5093997;28;20103;-76
2021/03/05 00:41:29;;;;;;;100.05;47.20;;;77.00;2099.20;;;;;;5094434;28;20469;-75
2021/03/05 00:43:55;;;;;;;104.22;49.40;;;77.00;2099.20;;;;;;5094152;28;20103;-75
2021/03/05 00:46:21;;;;;;;146.50;62.78;;;77.00;2099.20;;;;;;5094593;28;20099;-75
2021/03/05 00:48:46;;;;;;;137.95;59.85;;;77.00;2124.80;;;;;;5097119;28;20494;-79
2021/03/05 00:51:12;;;;;;;121.15;52.97;;;77.00;2124.80;;;;;;5087952;28;20024;-75
2021/03/05 00:53:38;;;;;;;126.13;58.78;;;77.00;2124.80;;;;;;5096616;28;20099;-76
2021/03/05 00:56:04;;;;;;;121.60;54.95;;;76.90;2124.80;;;;;;5093945;28;20047;-75
2021/03/05 00:58:29;;;;;;;94.70;46.97;;;76.90;2150.40;;;;;;5093836;28;20044;-75
2021/03/05 01:00:55;;;;;;;106.93;48.67;;;76.90;2150.40;;;;;;5075208;28;20366;-75
2021/03/05 01:03:21;;;;;;;93.18;44.88;;;76.80;2176.00;;;;;;5093897;28;20117;-78
2021/03/05 01:05:46;;;;;;;106.38;48.33;;;52.10;2201.60;;;;;;5094065;28;20034;-75
2021/03/05 01:08:12;;;;;;;101.60;47.00;;;52.10;2201.60;;;;;;5093858;28;20081;-75
2021/03/05 01:10:39;;;;;;;108.63;46.35;;;76.80;2176.00;;;;;;5106365;28;20480;-75
2021/03/05 01:13:04;;;;;;;88.32;43.78;;;52.10;2176.00;;;;;;5102895;28;20038;-75
2021/03/05 01:15:30;;;;;;;95.20;45.03;;;52.10;2201.60;;;;;;5097601;28;20021;-76
2021/03/05 01:17:56;;;;;;;98.25;44.58;;;52.10;2201.60;;;;;;5076131;28;20468;-75
2021/03/05 01:20:24;;;;;;;111.47;50.58;;;52.10;2176.00;;;;;;5093492;28;20020;-76
2021/03/05 01:22:51;;;;;;;107.22;50.88;;;52.10;2201.60;;;;;;5093826;28;20477;-75
2021/03/05 01:25:20;;;;;;;113.65;52.03;;;52.10;2201.60;;;;;;5093583;28;20056;-76
2021/03/05 01:27:46;;;;;;;104.55;49.72;;;52.10;2201.60;;;;;;5094087;28;20102;-78
2021/03/05 01:30:12;;;;;;;106.55;49.20;;;52.10;2201.60;;;;;;5102810;28;20524;-75
2021/03/05 01:32:39;;;;;;;114.00;50.38;;;52.10;2227.20;;;;;;5108941;28;20031;-78
2021/03/05 01:35:25;;;;;;;113.47;50.30;;;52.10;2227.20;;;;;;5078339;28;20077;-75
2021/03/05 01:37:51;;;;;;;98.85;47.65;;;52.10;2227.20;;;;;;5093432;28;20020;-76
2021/03/05 01:40:38;;;;;;;105.13;49.47;;;52.00;2227.20;;;;;;5092795;28;20140;-75
2021/03/05 01:43:08;;;;;;;109.00;47.58;;;52.00;2227.20;;;;;;5093291;28;20107;-79
2021/03/05 01:45:34;;;;;;;99.05;45.63;;;52.00;2227.20;;;;;;5093060;28;20031;-78
2021/03/05 01:48:07;;;;;;;96.82;45.38;;;51.90;2227.20;;;;;;5093526;28;20111;-74
2021/03/05 01:50:49;;;;;;;100.25;46.35;;;52.00;2227.20;;;;;;5092625;28;20063;-75
2021/03/05 01:53:14;;;;;;;101.03;46.70;;;51.90;2227.20;;;;;;5093134;28;20115;-75
2021/03/05 01:55:40;;;;;;;99.40;46.05;;;51.90;2227.20;;;;;;5099226;28;20103;-75
2021/03/05 01:58:06;;;;;;;103.88;47.80;;;51.80;2227.20;;;;;;5103067;28;20476;-75
2021/03/05 02:00:32;;;;;;;100.15;45.28;;;51.80;2227.20;;;;;;5099138;28;20111;-76
2021/03/05 02:02:58;;;;;;;101.63;47.35;;;51.80;2227.20;;;;;;5092499;28;20111;-75
2021/03/05 02:05:24;;;;;;;116.38;50.30;;;51.70;2227.20;;;;;;5092722;28;20035;-75
2021/03/05 02:07:49;;;;;;;110.78;49.92;;;51.70;2227.20;;;;;;5092661;28;20040;-79
2021/03/05 02:10:16;;;;;;;89.00;43.30;;;51.60;2227.20;;;;;;5092203;28;20031;-78
2021/03/05 02:12:42;;;;;;;78.35;40.10;;;51.60;2227.20;;;;;;5092478;28;20031;-78
2021/03/05 02:15:08;;;;;;;72.47;37.67;;;51.50;2227.20;;;;;;5096684;28;20023;-76
2021/03/05 02:17:45;;;;;;;80.38;39.53;;;51.50;2227.20;;;;;;5096539;28;20023;-76
2021/03/05 02:20:20;;;;;;;79.35;38.58;;;51.50;2227.20;;;;;;5100521;28;20019;-75
2021/03/05 02:23:12;;;;;;;83.85;41.90;;;51.50;2227.20;;;;;;5076202;28;20020;-75
2021/03/05 02:26:15;;;;;;;84.13;40.38;;;51.40;2227.20;;;;;;5091682;28;20082;-75
2021/03/05 02:28:46;;;;;;;82.97;39.67;;;51.50;2227.20;;;;;;5092367;28;20028;-76
2021/03/05 02:31:15;;;;;;;80.20;39.70;;;51.40;2227.20;;;;;;5092308;28;20024;-78
2021/03/05 02:33:46;;;;;;;78.47;38.45;;;51.40;2227.20;;;;;;5092259;28;20028;-79
2021/03/05 02:36:17;;;;;;;84.25;40.28;;;51.30;2227.20;;;;;;5079660;28;20063;-79
2021/03/05 02:38:55;;;;;;;111.85;45.88;;;51.30;2227.20;;;;;;5106894;28;20106;-77
2021/03/05 02:41:21;;;;;;;105.15;45.22;;;51.30;2227.20;;;;;;5086291;28;20024;-75
2021/03/05 02:43:47;;;;;;;84.57;41.15;;;51.30;2227.20;;;;;;5099075;28;20028;-75
2021/03/05 02:46:13;;;;;;;68.97;34.90;;;51.20;2227.20;;;;;;5092103;28;20024;-74
2021/03/05 02:48:46;;;;;;;84.75;38.03;;;51.20;2227.20;;;;;;5070202;28;20032;-75
2021/03/05 02:51:15;;;;;;;68.78;34.88;;;51.20;2227.20;;;;;;5084337;28;20104;-75
2021/03/05 02:53:43;;;;;;;66.18;34.25;;;26.50;2201.60;;;;;;5091956;28;20020;-75
2021/03/05 02:56:20;;;;;;;62.05;32.83;;;26.50;2201.60;;;;;;5091433;28;20384;-75
2021/03/05 02:58:49;;;;;;;72.38;35.08;;;26.50;2201.60;;;;;;5107164;28;20019;-75
2021/03/05 03:01:16;;;;;;;72.80;33.83;;;26.40;2201.60;;;;;;5103351;28;20196;-78
2021/03/05 03:03:43;;;;;;;68.47;33.97;;;26.40;2201.60;;;;;;5103469;28;20028;-78
2021/03/05 03:06:15;;;;;;;68.15;34.72;;;26.50;2201.60;;;;;;5087292;28;20032;-75
2021/03/05 03:08:43;;;;;;;70.35;34.78;;;26.50;2201.60;;;;;;5088042;28;20517;-75
2021/03/05 03:11:09;;;;;;;64.82;33.42;;;26.40;2201.60;;;;;;5091589;28;20072;-74
2021/03/05 03:13:36;;;;;;;77.15;36.50;;;26.50;2201.60;;;;;;5091877;28;20267;-75
2021/03/05 03:16:07;;;;;;;67.93;33.17;;;26.40;2201.60;;;;;;5091552;28;20028;-75
2021/03/05 03:18:36;;;;;;;71.68;34.03;;;26.40;2201.60;;;;;;5103634;28;20503;-75
2021/03/05 03:21:04;;;;;;;57.40;30.42;;;26.40;2201.60;;;;;;5110384;28;20411;-77
2021/03/05 03:23:30;;;;;;;60.13;30.15;;;26.40;2201.60;;;;;;5091286;28;20050;-78
2021/03/05 03:25:59;;;;;;;58.70;29.13;;;26.30;2201.60;;;;;;5091339;28;20028;-75
2021/03/05 03:28:24;;;;;;;59.08;30.70;;;26.40;2201.60;;;;;;5091201;28;20028;-76
2021/03/05 03:30:50;;;;;;;61.38;31.48;;;26.30;2201.60;;;;;;5091269;28;20020;-79
2021/03/05 03:33:18;;;;;;;65.60;33.97;;;26.30;2201.60;;;;;;5091240;28;20488;-77
2021/03/05 03:35:45;;;;;;;58.28;30.30;;;26.20;2201.60;;;;;;5091111;28;20051;-81
2021/03/05 03:38:11;;;;;;;58.00;30.35;;;26.20;2201.60;;;;;;5099955;28;20026;-78
2021/03/05 03:40:38;;;;;;;57.80;30.17;;;25.90;2201.60;;;;;;5110835;28;20476;-75
2021/03/05 03:43:05;;;;;;;54.45;27.58;;;25.90;2201.60;;;;;;5100757;28;20024;-78
2021/03/05 03:45:32;;;;;;;52.30;28.10;;;25.80;2201.60;;;;;;5091100;28;20031;-77
2021/03/05 03:48:01;;;;;;;46.80;26.92;;;25.80;2201.60;;;;;;5091117;28;20020;-76
2021/03/05 03:50:42;;;;;;;50.97;26.23;;;25.70;2201.60;;;;;;5090724;28;20032;-74
2021/03/05 03:53:18;;;;;;;50.65;26.67;;;25.80;2201.60;;;;;;5091078;28;20039;-78
2021/03/05 03:55:44;;;;;;;52.10;27.77;;;25.70;2201.60;;;;;;5090995;28;20085;-78
2021/03/05 03:58:11;;;;;;;50.50;25.98;;;25.80;2201.60;;;;;;5076028;28;20023;-76
2021/03/05 04:00:37;;;;;;;49.22;27.23;;;25.70;2201.60;;;;;;5097734;28;20024;-75
2021/03/05 04:03:05;;;;;;;53.63;28.85;;;25.70;2201.60;;;;;;5100743;28;20465;-75
2021/03/05 04:05:36;;;;;;;49.47;26.95;;;25.70;2201.60;;;;;;5091120;28;20031;-76
2021/03/05 04:08:03;;;;;;;48.17;25.52;;;25.80;2201.60;;;;;;5090643;28;20048;-75
2021/03/05 04:10:29;;;;;;;42.90;24.23;;;25.80;2201.60;;;;;;5090749;28;20385;-75
2021/03/05 04:12:56;;;;;;;45.75;25.77;;;25.80;2201.60;;;;;;5090704;28;20027;-74
2021/03/05 04:15:23;;;;;;;45.45;25.75;;;25.80;2201.60;;;;;;5091101;28;20020;-76
2021/03/05 04:17:49;;;;;;;47.15;25.52;;;25.70;2201.60;;;;;;5090681;28;20059;-75
2021/03/05 04:20:16;;;;;;;50.78;26.00;;;25.60;2201.60;;;;;;5101278;28;20428;-78
2021/03/05 04:22:43;;;;;;;49.13;26.10;;;0.80;2201.60;;;;;;5096208;28;20020;-75
2021/03/05 04:25:12;;;;;;;50.05;24.88;;;0.60;2201.60;;;;;;5069258;28;20644;-75
2021/03/05 04:27:37;;;;;;;47.45;25.70;;;0.60;2201.60;;;;;;5087351;28;20030;-76
2021/03/05 04:30:04;;;;;;;47.90;26.42;;;0.60;2201.60;;;;;;5093011;28;20099;-75
2021/03/05 04:32:30;;;;;;;46.55;25.70;;;0.70;2201.60;;;;;;5092886;28;20031;-75
2021/03/05 04:34:55;;;;;;;43.22;25.75;;;0.70;2201.60;;;;;;5091121;28;20541;-75
2021/03/05 04:37:21;;;;;;;50.50;27.10;;;0.70;2201.60;;;;;;5090666;28;20043;-75
2021/03/05 04:39:47;;;;;;;51.00;26.63;;;0.60;2201.60;;;;;;5091294;28;20448;-76
2021/03/05 04:42:12;;;;;;;46.35;26.15;;;0.60;2201.60;;;;;;5105930;28;20024;-74
2021/03/05 04:44:38;;;;;;;47.10;27.15;;;0.50;2201.60;;;;;;5111036;28;20023;-75
2021/03/05 04:47:04;;;;;;;49.75;26.27;;;0.50;2201.60;;;;;;5077756;28;20112;-76
2021/03/05 04:49:29;;;;;;;52.20;28.55;;;0.60;2201.60;;;;;;5091655;28;20070;-75
2021/03/05 04:51:55;;;;;;;52.55;28.30;;;0.60;2201.60;;;;;;5094117;28;20020;-77
2021/03/05 04:54:22;;;;;;;56.15;28.23;;;0.70;2201.60;;;;;;5094186;28;20028;-75
2021/03/05 04:56:48;;;;;;;56.42;28.98;;;0.70;2201.60;;;;;;5094122;28;20107;-77
2021/03/05 04:59:13;;;;;;;65.55;33.40;;;0.70;2201.60;;;;;;5093896;28;20103;-76
2021/03/05 05:01:39;;;;;;;56.50;29.90;;;0.70;2201.60;;;;;;5096472;28;20049;-76
2021/03/05 05:04:05;;;;;;;64.07;31.13;;;0.70;2201.60;;;;;;5112877;28;20476;-75
2021/03/05 05:06:30;;;;;;;61.83;30.70;;;0.70;2201.60;;;;;;5114147;28;20047;-75
2021/03/05 05:08:56;;;;;;;69.50;35.25;;;0.70;2201.60;;;;;;5101009;28;20542;-75
2021/03/05 05:11:22;;;;;;;67.75;34.20;;;0.80;2201.60;;;;;;5093837;28;20099;-75
2021/03/05 05:13:47;;;;;;;58.65;30.90;;;0.80;2201.60;;;;;;5093840;28;20035;-75
2021/03/05 05:16:13;;;;;;;58.33;30.80;;;0.80;2201.60;;;;;;5093837;28;20020;-75
2021/03/05 05:18:39;;;;;;;55.63;29.52;;;0.90;2201.60;;;;;;5093522;28;20028;-76
2021/03/05 05:21:04;;;;;;;51.55;29.00;;;0.80;2201.60;;;;;;5095763;28;20055;-76
2021/03/05 05:23:30;;;;;;;74.30;35.10;;;25.60;2201.60;;;;;;5098444;28;20027;-75
2021/03/05 05:25:56;;;;;;;124.00;51.72;;;25.70;2201.60;;;;;;5099987;28;20483;-76
2021/03/05 05:28:21;;;;;;;71.78;34.45;;;25.70;2201.60;;;;;;5095680;28;20028;-82
2021/03/05 05:30:47;;;;;;;58.60;31.63;;;25.60;2201.60;;;;;;5072866;28;20119;-81
2021/03/05 05:33:13;;;;;;;72.72;35.75;;;25.80;2201.60;;;;;;5093247;28;20032;-78
2021/03/05 05:35:39;;;;;;;56.50;30.90;;;26.20;2201.60;;;;;;5093321;28;20043;-75
2021/03/05 05:38:05;;;;;;;55.67;31.20;;;26.50;2201.60;;;;;;5075307;28;20016;-75
2021/03/05 05:40:31;;;;;;;58.70;32.70;;;51.20;2227.20;;;;;;5092414;28;20023;-75
2021/03/05 05:42:57;;;;;;;52.85;29.60;;;51.30;2227.20;;;;;;5104992;28;20028;-76
2021/03/05 05:45:22;;;;;;;52.55;27.90;;;51.70;2227.20;;;;;;5112719;28;20034;-76
2021/03/05 05:47:48;;;;;;;92.90;40.90;;;52.00;2176.00;;;;;;5075467;28;20484;-82
2021/03/05 05:50:14;;;;;;;71.32;35.55;;;52.00;2150.40;;;;;;5092813;28;20024;-81
2021/03/05 05:52:41;;;;;;;72.90;37.97;;;76.80;2150.40;;;;;;5093138;28;20028;-75
2021/03/05 05:55:08;;;;;;;63.30;33.03;;;77.00;2124.80;;;;;;5093436;28;20067;-75
2021/03/05 05:57:38;;;;;;;91.22;49.05;;;77.00;2150.40;;;;;;5092911;28;20020;-76
2021/03/05 06:00:07;;;;;;;76.53;40.60;;;77.00;2150.40;;;;;;5092810;28;20103;-75
2021/03/05 06:02:34;;;;;;;89.63;44.85;;;76.90;2176.00;;;;;;5099611;28;20469;-75
2021/03/05 06:05:00;;;;;;;171.90;82.50;;;77.00;2176.00;;;;;;5105432;28;20088;-75
2021/03/05 06:07:26;;;;;;;132.52;62.35;;;77.50;2124.80;;;;;;5096525;28;20094;-78
2021/03/05 06:09:53;;;;;;;91.55;45.85;;;102.60;2048.00;;;;;;5092639;28;20463;-76
2021/03/05 06:12:19;;;;;;;109.50;50.45;;;102.80;1996.80;;;;;;5093496;28;20095;-77
2021/03/05 06:14:46;;;;;;;363.27;135.27;;;103.10;1971.20;;;;;;5098956;28;20077;-76
2021/03/05 06:17:12;;;;;;;206.68;84.30;;;128.40;1920.00;;;;;;5076258;28;20020;-77
2021/03/05 06:19:39;;;;;;;137.25;62.97;;;128.70;1894.40;;;;;;5091549;28;20052;-83
2021/03/05 06:22:19;;;;;;;113.95;56.65;;;128.90;1868.80;;;;;;5091829;28;20506;-76
2021/03/05 06:24:46;;;;;;;77.82;41.72;;;153.70;1843.20;;;;;;5101140;28;20028;-76
2021/03/05 06:27:12;;;;;;;67.25;37.53;;;154.20;1792.00;;;;;;5111606;28;20019;-76
2021/03/05 06:29:48;;;;;;;65.00;36.38;;;179.50;1715.20;;;;;;5099510;28;20024;-75
2021/03/05 06:32:19;;;;;;;64.15;37.42;;;179.90;1689.60;;;;;;5065740;28;20017;-76
2021/03/05 06:34:53;;;;;;;65.82;41.40;;;179.90;1664.00;;;;;;5089622;28;20028;-76
2021/03/05 06:37:21;;;;;;;64.72;39.25;;;180.10;1638.40;;;;;;5092189;28;20070;-76
2021/03/05 06:40:02;;;;;;;59.03;38.35;;;205.30;1587.20;;;;;;5091989;28;20556;-77
2021/03/05 06:42:28;;;;;;;65.80;37.42;;;205.70;1561.60;;;;;;5092146;28;20013;-76
2021/03/05 06:44:54;;;;;;;59.35;36.90;;;230.90;1484.80;;;;;;5106866;28;20076;-76
2021/03/05 06:47:21;;;;;;;81.47;43.80;;;256.20;1408.00;;;;;;5101023;28;20081;-76
2021/03/05 06:49:49;;;;;;;79.43;40.70;;;281.60;1356.80;;;;;;5103046;28;20081;-76
2021/03/05 06:52:17;;;;;;;97.70;36.95;;;333.40;1228.80;;;;;;5091776;28;20032;-76
2021/03/05 06:54:45;;;;;;;64.15;38.10;;;409.60;1100.80;;;;;;5092150;28;20092;-76
2021/03/05 06:57:14;;;;;;;63.17;39.67;;;461.50;972.80;;;;;;5091884;28;20019;-76
2021/03/05 06:59:45;;;;;;;67.15;42.47;;;512.60;870.40;;;;;;5091565;28;20042;-81
2021/03/05 07:02:15;;;;;;;56.70;36.45;;;538.30;844.80;;;;;;5091813;28;20503;-77
2021/03/05 07:04:51;;;;;;;48.40;35.00;;;538.50;793.60;;;;;;5103294;28;20023;-77
2021/03/05 07:07:18;;;;;;;50.45;35.00;;;588.90;768.00;;;;;;5109632;28;20071;-80
2021/03/05 07:09:55;;;;;;;50.28;33.70;;;589.10;742.40;;;;;;5074175;28;20035;-78
2021/03/05 07:12:25;;;;;;;52.65;34.63;;;563.90;742.40;;;;;;5091204;28;20056;-80
2021/03/05 07:15:00;;;;;;;61.15;40.17;;;588.80;742.40;;;;;;5091483;28;20020;-78
2021/03/05 07:17:26;;;;;;;69.90;43.53;;;588.80;742.40;;;;;;5091634;28;20020;-79
2021/03/05 07:19:54;;;;;;;68.57;42.92;;;614.50;742.40;;;;;;5073139;28;20044;-82
2021/03/05 07:22:29;;;;;;;47.30;34.65;;;589.00;742.40;;;;;;5091798;28;20034;-79
2021/03/05 07:24:57;;;;;;;52.40;35.53;;;563.40;768.00;;;;;;5098553;28;20065;-76
2021/03/05 07:27:37;;;;;;;47.63;33.80;;;564.10;742.40;;;;;;5111809;28;20553;-76
2021/03/05 07:30:08;;;;;;;43.92;32.80;;;640.40;691.20;;;;;;5092817;28;20028;-78
2021/03/05 07:32:38;;;;;;;41.92;30.10;;;666.30;665.60;;;;;;5091232;28;20028;-77
2021/03/05 07:35:36;;;;;;;45.35;30.23;;;691.30;665.60;;;;;;5091203;28;20024;-77
2021/03/05 07:38:05;;;;;;;33.85;24.08;;;742.60;640.00;;;;;;5075856;28;20162;-77
2021/03/05 07:40:33;;;;;;;37.08;26.80;;;742.60;640.00;;;;;;5090867;28;20534;-75
2021/03/05 07:42:59;;;;;;;31.23;22.73;;;768.90;588.80;;;;;;5092381;28;20024;-77
2021/03/05 07:45:25;;;;;;;36.75;26.08;;;743.10;614.40;;;;;;5074517;28;20024;-77
2021/03/05 07:47:54;;;;;;;34.38;24.02;;;742.60;640.00;;;;;;5104132;28;20024;-77
2021/03/05 07:50:26;;;;;;;29.45;22.45;;;768.80;588.80;;;;;;5102871;28;20020;-77
2021/03/05 07:52:58;;;;;;;29.80;21.50;;;743.00;614.40;;;;;;5086065;28;20035;-77
2021/03/05 07:55:41;;;;;;;31.80;22.88;;;742.70;614.40;;;;;;5091226;28;20024;-78
2021/03/05 07:58:07;;;;;;;31.42;20.90;;;768.30;588.80;;;;;;5087115;28;20032;-75
2021/03/05 08:00:47;;;;;;;23.17;18.27;;;768.60;588.80;;;;;;5092340;28;20020;-88
2021/03/05 08:03:13;;;;;;;23.52;18.13;;;793.80;588.80;;;;;;5085772;28;20110;-76
2021/03/05 08:05:39;;;;;;;22.70;18.17;;;768.60;563.20;;;;;;5094885;28;20035;-80
2021/03/05 08:08:23;;;;;;;21.17;16.95;;;743.00;588.80;;;;;;5093445;28;20048;-86
2021/03/05 08:11:05;;;;;;;24.88;19.17;;;743.10;614.40;;;;;;5070257;28;20127;-77
2021/03/05 08:16:30;;;;;;;27.02;18.92;;;793.70;588.80;;;;;;5096202;28;20032;-77
2021/03/05 08:19:05;;;;;;;18.25;15.07;;;768.40;588.80;;;;;;5090605;28;20480;-76
2021/03/05 08:21:55;;;;;;;17.60;14.68;;;844.80;563.20;;;;;;5093325;28;20500;-76
2021/03/05 08:24:21;;;;;;;;;;;768.10;563.20;;;;;;5097330;28;20080;-77
2021/03/05 08:27:07;;;;;;;23.33;16.58;;;793.70;563.20;;;;;;5100917;28;19916;-78
2021/03/05 08:30:03;;;;;;;22.52;17.08;;;819.30;537.60;;;;;;5094608;28;20069;-77
2021/03/05 08:32:34;;;;;;;20.92;15.85;;;794.10;563.20;;;;;;5080968;28;20020;-76
2021/03/05 08:35:10;;;;;;;19.33;14.77;;;870.40;537.60;;;;;;5094860;28;20028;-81
2021/03/05 08:37:47;;;;;;;19.80;14.82;;;844.90;537.60;;;;;;5081475;28;20012;-77
2021/03/05 08:40:13;;;;;;;17.70;13.82;;;870.80;512.00;;;;;;5092677;28;20073;-76
2021/03/05 08:42:40;;;;;;;18.33;14.25;;;870.90;512.00;;;;;;5103040;28;20054;-77
2021/03/05 08:45:28;;;;;;;17.55;13.88;;;922.00;486.40;;;;;;5109679;28;20504;-77
2021/03/05 08:47:55;;;;;;;16.70;13.65;;;871.20;486.40;;;;;;5109401;28;20031;-77
2021/03/05 08:50:30;;;;;;;18.95;13.38;;;871.20;486.40;;;;;;5110073;28;20051;-72
2021/03/05 08:52:56;;;;;;;18.60;13.05;;;896.70;460.80;;;;;;5108580;28;20488;-72
2021/03/05 08:55:22;;;;;;;15.85;12.20;;;922.00;486.40;;;;;;5103746;28;20024;-72
2021/03/05 08:57:49;;;;;;;26.42;13.52;;;973.60;460.80;;;;;;5111198;28;20019;-72
2021/03/05 09:00:17;;;;;;;18.00;13.20;;;973.20;460.80;;;;;;5109215;28;20083;-72
2021/03/05 09:02:48;;;;;;;14.77;11.18;;;947.60;460.80;;;;;;5105138;28;20063;-72
2021/03/05 09:05:24;;;;;;;15.88;10.98;;;896.30;460.80;;;;;;5104864;28;20047;-71
2021/03/05 09:07:55;;;;;;;14.65;10.80;;;896.30;460.80;;;;;;5099538;28;20039;-71
2021/03/05 09:10:36;;;;;;;14.15;10.45;;;948.10;435.20;;;;;;5108163;28;20027;-73
2021/03/05 09:13:02;;;;;;;12.63;9.90;;;998.80;435.20;;;;;;5105200;28;20052;-76
2021/03/05 09:15:48;;;;;;;13.57;10.15;;;1024.00;435.20;;;;;;5112730;28;20472;-73
2021/03/05 09:18:16;;;;;;;14.90;11.38;;;845.40;486.40;;;;;;5109907;28;20063;-74
2021/03/05 09:20:52;;;;;;;13.32;9.77;;;921.80;460.80;;;;;;5103809;28;20072;-79
2021/03/05 09:23:26;;;;;;;10.80;8.60;;;973.70;409.60;;;;;;5105623;28;20035;-72
2021/03/05 09:26:00;;;;;;;14.00;9.25;;;999.00;435.20;;;;;;5105739;28;20647;-69
2021/03/05 09:28:28;;;;;;;22.23;16.38;;;1024.10;435.20;;;;;;5106071;28;20043;-73
2021/03/05 09:30:57;;;;;;;11.20;8.68;;;1076.10;384.00;;;;;;5106255;28;20024;-75
2021/03/05 09:33:30;;;;;;;12.90;9.00;;;1101.70;384.00;;;;;;5109294;28;20106;-71
2021/03/05 09:36:15;;;;;;;16.42;12.55;;;1101.10;409.60;;;;;;5108182;28;20219;-72
2021/03/05 09:38:46;;;;;;;14.75;8.38;;;1126.70;409.60;;;;;;5106574;28;20053;-74
2021/03/05 09:41:13;;;;;;;13.15;10.25;;;1075.40;384.00;;;;;;5110780;28;20030;-71
2021/03/05 09:43:40;;;;;;;25.55;20.85;;;1126.90;409.60;;;;;;5111569;28;20031;-70
2021/03/05 09:46:23;;;;;;;16.35;12.73;;;1127.00;409.60;;;;;;5109489;28;20412;-75
2021/03/05 09:48:51;;;;;;;11.85;8.85;;;1152.20;409.60;;;;;;5109941;28;20481;-73
2021/03/05 09:51:20;;;;;;;14.45;11.13;;;1203.40;435.20;;;;;;5105847;28;20030;-79
2021/03/05 09:53:57;;;;;;;10.27;8.38;;;1203.40;435.20;;;;;;5108117;28;20023;-75
2021/03/05 09:56:27;;;;;;;11.73;9.07;;;1204.10;435.20;;;;;;5108093;28;20011;-71
2021/03/05 09:59:03;;;;;;;11.50;8.20;;;1280.00;486.40;;;;;;5108338;28;20095;-72
2021/03/05 10:01:33;;;;;;;10.70;8.65;;;1229.70;460.80;;;;;;5109536;28;20018;-75
2021/03/05 10:04:01;;;;;;;11.52;8.70;;;1204.10;435.20;;;;;;5109594;28;20368;-80
2021/03/05 10:06:30;;;;;;;12.00;10.05;;;1229.20;460.80;;;;;;5102607;28;20039;-71
2021/03/05 10:09:09;;;;;;;11.57;8.67;;;1229.20;460.80;;;;;;5107295;28;20020;-75
2021/03/05 10:11:37;;;;;;;21.33;15.18;;;1229.40;460.80;;;;;;5106019;28;20024;-78
2021/03/05 10:14:04;;;;;;;20.38;15.00;;;1280.50;486.40;;;;;;5108242;28;20102;-71
2021/03/05 10:16:38;;;;;;;19.67;15.35;;;1255.00;486.40;;;;;;5104803;28;20085;-75
2021/03/05 10:19:09;;;;;;;10.75;8.98;;;1254.40;486.40;;;;;;5109051;28;20088;-76
2021/03/05 10:21:42;;;;;;;12.57;8.88;;;1254.40;486.40;;;;;;5104036;28;20020;-73
2021/03/05 10:24:13;;;;;;;39.05;30.58;;;1203.40;435.20;;;;;;5103643;28;20422;-72
2021/03/05 10:27:10;;;;;;;10.43;7.90;;;1229.20;460.80;;;;;;5107311;28;20039;-71
2021/03/05 10:29:25;;;;;;;17.83;14.27;;;1280.00;486.40;;;;;;5106057;28;20132;-75
2021/03/05 10:31:52;;;;;;;10.18;7.72;;;1229.30;460.80;;;;;;5105028;28;20027;-71
2021/03/05 10:34:46;;;;;;;10.43;8.65;;;1255.10;486.40;;;;;;5103463;28;20085;-71
2021/03/05 10:37:12;;;;;;;32.97;28.88;;;1228.90;460.80;;;;;;5100656;28;20035;-74
2021/03/05 10:39:37;;;;;;;16.05;11.13;;;1280.50;486.40;;;;;;5103874;28;20011;-72
2021/03/05 10:42:05;;;;;;;9.82;7.07;;;1331.70;512.00;;;;;;5104386;28;20042;-71
2021/03/05 10:44:33;;;;;;;9.43;7.63;;;1332.10;512.00;;;;;;5102678;28;20031;-75
2021/03/05 10:47:04;;;;;;;15.13;10.98;;;1357.20;537.60;;;;;;5102428;28;20024;-74
2021/03/05 10:49:30;;;;;;;10.50;7.55;;;1357.20;537.60;;;;;;5102555;28;20051;-71
2021/03/05 10:51:57;;;;;;;10.82;7.53;;;1356.80;537.60;;;;;;5107109;28;20043;-72
2021/03/05 10:54:23;;;;;;;10.80;8.20;;;1357.40;537.60;;;;;;5098967;28;20028;-76
2021/03/05 10:56:50;;;;;;;10.60;7.47;;;1382.60;563.20;;;;;;5107750;28;20030;-73
2021/03/05 10:59:17;;;;;;;12.45;9.30;;;1408.00;563.20;;;;;;5102395;28;20039;-82
2021/03/05 11:01:45;;;;;;;10.05;8.35;;;1408.90;563.20;;;;;;5109363;28;20050;-75
2021/03/05 11:04:11;;;;;;;10.40;7.03;;;1408.20;563.20;;;;;;5105628;28;20059;-70
2021/03/05 11:06:36;;;;;;;9.98;7.97;;;1408.50;563.20;;;;;;5106723;28;20079;-70
2021/03/05 11:09:04;;;;;;;9.32;7.20;;;1433.70;588.80;;;;;;5107794;28;20418;-72
2021/03/05 11:11:30;;;;;;;64.78;58.63;;;1434.50;588.80;;;;;;5106392;28;20484;-72
2021/03/05 11:13:56;;;;;;;11.43;10.23;;;1434.50;588.80;;;;;;5107364;28;20396;-73
2021/03/05 11:16:22;;;;;;;8.00;6.50;;;1408.90;563.20;;;;;;5096150;28;20024;-74
2021/03/05 11:18:48;;;;;;;7.20;6.13;;;1408.70;563.20;;;;;;5103700;28;20027;-74
2021/03/05 11:21:14;;;;;;;8.95;6.40;;;1434.30;588.80;;;;;;5103980;28;20035;-74
2021/03/05 11:23:39;;;;;;;7.18;5.45;;;1434.10;588.80;;;;;;5100993;28;20024;-76
2021/03/05 11:26:05;;;;;;;13.60;9.63;;;1331.90;512.00;;;;;;5110297;28;20030;-73
2021/03/05 11:28:31;;;;;;;7.15;5.93;;;1382.90;563.20;;;;;;5108275;28;20495;-71
2021/03/05 11:30:56;;;;;;;7.78;6.43;;;1356.80;537.60;;;;;;5109305;28;20030;-77
2021/03/05 11:33:22;;;;;;;7.30;5.97;;;1306.20;486.40;;;;;;5107950;28;20047;-73
2021/03/05 11:35:48;;;;;;;12.90;10.88;;;1204.10;435.20;;;;;;5084297;28;20031;-75
2021/03/05 11:38:14;;;;;;;12.68;11.23;;;1152.70;409.60;;;;;;5104965;28;20392;-71
2021/03/05 11:40:39;;;;;;;8.95;6.60;;;1228.80;460.80;;;;;;5106903;28;20024;-79
2021/03/05 11:43:05;;;;;;;16.30;12.32;;;1178.10;409.60;;;;;;5103353;28;20059;-73
2021/03/05 11:45:31;;;;;;;12.18;6.93;;;1229.40;460.80;;;;;;5106326;28;20046;-71
2021/03/05 11:47:57;;;;;;;11.05;8.63;;;1280.00;486.40;;;;;;5108776;28;20415;-72
2021/03/05 11:50:22;;;;;;;8.75;6.85;;;1228.90;460.80;;;;;;5108726;28;20015;-72
2021/03/05 11:52:48;;;;;;;10.02;8.38;;;1254.60;486.40;;;;;;5099966;28;20023;-72
2021/03/05 11:55:14;;;;;;;11.45;9.63;;;1255.30;486.40;;;;;;5105863;28;20073;-68
2021/03/05 11:57:39;;;;;;;11.88;7.85;;;1305.70;486.40;;;;;;5098474;28;20028;-73
2021/03/05 12:00:06;;;;;;;9.60;7.40;;;1331.40;512.00;;;;;;5108864;28;20031;-75
2021/03/05 12:02:33;;;;;;;8.82;7.35;;;1332.10;512.00;;;;;;5103703;28;20046;-72
2021/03/05 12:04:58;;;;;;;12.60;9.02;;;1356.80;537.60;;;;;;5108553;28;20107;-73
2021/03/05 12:07:24;;;;;;;12.77;6.90;;;1357.10;537.60;;;;;;5111356;28;20123;-71
2021/03/05 12:09:50;;;;;;;9.10;7.50;;;1254.60;486.40;;;;;;5108447;28;20023;-72
2021/03/05 12:12:18;;;;;;;8.90;6.53;;;1229.70;460.80;;;;;;5109800;28;20152;-71
2021/03/05 12:14:44;;;;;;;9.13;7.57;;;1229.20;460.80;;;;;;5116848;28;20046;-71
2021/03/05 12:17:10;;;;;;;9.15;6.72;;;1229.40;460.80;;;;;;5112645;28;20020;-72